Time;durP1;ratioP1;P1;durP2;ratioP2;P2;SDS_P1;SDS_P2;PMS_P1;PMS_P2;Temp;Humidity;BMP_temperature;BMP_pressure;BME280_temperature;BME280_humidity;BME280_pressure;Samples;Min_cycle;Max_cycle;Signal;HPM_P1;HPM_P2
2021/04/16 00:01:02;;;;;;;3.40;2.40;;;6.50;99.90;;;;;;5038295;28;20250;-56
2021/04/16 00:03:30;;;;;;;3.50;2.43;;;6.30;99.90;;;;;;5028640;28;20327;-53
2021/04/16 00:05:58;;;;;;;2.67;2.30;;;6.20;99.90;;;;;;5026849;28;20319;-55
2021/04/16 00:08:30;;;;;;;3.13;2.43;;;6.20;99.90;;;;;;5030383;28;20248;-53
2021/04/16 00:11:04;;;;;;;3.83;2.83;;;6.10;99.90;;;;;;5038516;28;20315;-52
2021/04/16 00:13:32;;;;;;;3.77;2.50;;;6.00;99.90;;;;;;5050544;28;20986;-54
2021/04/16 00:16:01;;;;;;;3.37;2.33;;;6.00;99.90;;;;;;5032493;28;20319;-51
2021/04/16 00:18:31;;;;;;;2.77;2.40;;;6.00;99.90;;;;;;5048613;28;20247;-51
2021/04/16 00:20:59;;;;;;;2.57;2.03;;;6.00;99.90;;;;;;5049445;28;20691;-51
2021/04/16 00:23:28;;;;;;;5.20;2.77;;;6.00;99.90;;;;;;5049420;28;20568;-53
2021/04/16 00:25:58;;;;;;;2.43;2.20;;;6.00;99.90;;;;;;5049704;28;20231;-53
2021/04/16 00:28:26;;;;;;;4.23;2.40;;;6.00;99.90;;;;;;5036268;28;20250;-55
2021/04/16 00:31:01;;;;;;;2.63;2.43;;;5.90;99.90;;;;;;5029012;28;20339;-54
2021/04/16 00:33:29;;;;;;;3.63;2.60;;;5.90;99.90;;;;;;5029940;28;20267;-50
2021/04/16 00:36:00;;;;;;;4.83;2.70;;;5.90;99.90;;;;;;5033238;28;20219;-55
2021/04/16 00:38:27;;;;;;;4.03;2.70;;;5.90;99.90;;;;;;5036086;28;20498;-51
2021/04/16 00:40:58;;;;;;;3.13;2.40;;;5.90;99.90;;;;;;5031885;28;20232;-51
2021/04/16 00:43:31;;;;;;;4.23;3.00;;;5.90;99.90;;;;;;5039586;28;20801;-52
2021/04/16 00:46:25;;;;;;;3.50;2.70;;;5.90;99.90;;;;;;5029138;28;20471;-54
2021/04/16 00:48:58;;;;;;;6.00;2.70;;;6.00;99.90;;;;;;5029750;28;20269;-54
2021/04/16 00:51:31;;;;;;;3.17;2.50;;;6.00;99.90;;;;;;5029132;28;21060;-52
2021/04/16 00:54:00;;;;;;;4.27;2.50;;;5.80;99.90;;;;;;5030193;28;20297;-53
2021/04/16 00:56:30;;;;;;;4.03;2.63;;;5.80;99.90;;;;;;5036960;28;20244;-52
2021/04/16 00:59:00;;;;;;;2.50;2.30;;;5.80;99.90;;;;;;5047372;28;20236;-51
2021/04/16 01:01:32;;;;;;;2.87;2.10;;;5.70;99.90;;;;;;5038760;28;20310;-53
2021/04/16 01:04:00;;;;;;;4.43;2.83;;;5.70;99.90;;;;;;5024256;28;20236;-53
2021/04/16 01:06:27;;;;;;;3.13;2.63;;;5.60;99.90;;;;;;5027030;28;20263;-53
2021/04/16 01:08:55;;;;;;;3.17;2.50;;;5.60;99.90;;;;;;5029545;28;20554;-54
2021/04/16 01:11:48;;;;;;;4.53;2.50;;;5.60;99.90;;;;;;5035915;28;20262;-52
2021/04/16 01:14:18;;;;;;;3.53;3.00;;;5.50;99.90;;;;;;5049700;28;20544;-55
2021/04/16 01:16:46;;;;;;;3.10;2.40;;;5.40;99.90;;;;;;5038523;28;20481;-55
2021/04/16 01:19:24;;;;;;;4.70;3.00;;;5.30;99.90;;;;;;5029057;28;20236;-54
2021/04/16 01:21:57;;;;;;;3.80;2.50;;;5.30;99.90;;;;;;5028467;28;20470;-54
2021/04/16 01:24:28;;;;;;;3.77;2.70;;;5.40;99.90;;;;;;5040091;28;20406;-54
2021/04/16 01:26:56;;;;;;;2.50;2.27;;;5.40;99.90;;;;;;5049102;28;20520;-52
2021/04/16 01:29:26;;;;;;;2.57;2.30;;;5.40;99.90;;;;;;5049137;28;20731;-53
2021/04/16 01:31:54;;;;;;;2.43;2.20;;;5.30;99.90;;;;;;5047869;28;20587;-54
2021/04/16 01:34:26;;;;;;;4.30;2.50;;;5.30;99.90;;;;;;5049317;28;20250;-53
2021/04/16 01:36:56;;;;;;;2.87;2.20;;;5.30;99.90;;;;;;5048812;28;20805;-56
2021/04/16 01:39:27;;;;;;;4.00;2.00;;;5.30;99.90;;;;;;5048074;28;20982;-54
2021/04/16 01:41:55;;;;;;;3.60;2.77;;;5.40;99.90;;;;;;5047918;28;20553;-52
2021/04/16 01:44:26;;;;;;;4.70;2.70;;;5.30;99.90;;;;;;5028935;28;20462;-53
2021/04/16 01:46:59;;;;;;;2.73;2.10;;;5.10;99.90;;;;;;5028367;28;20478;-55
2021/04/16 01:49:30;;;;;;;3.40;1.83;;;5.20;99.90;;;;;;5028832;28;20517;-53
2021/04/16 01:51:59;;;;;;;3.17;2.37;;;5.20;99.90;;;;;;5028294;28;20554;-55
2021/04/16 01:54:31;;;;;;;3.00;2.37;;;5.20;99.90;;;;;;5028868;28;20567;-53
2021/04/16 01:57:02;;;;;;;2.70;2.07;;;5.10;99.90;;;;;;5010825;28;20256;-51
2021/04/16 01:59:33;;;;;;;4.77;2.60;;;5.00;99.90;;;;;;5027762;28;20487;-55
2021/04/16 02:02:03;;;;;;;3.17;2.23;;;4.90;99.90;;;;;;5024304;28;20474;-55
2021/04/16 02:04:30;;;;;;;2.70;2.20;;;5.00;99.90;;;;;;5028771;28;20467;-53
2021/04/16 02:06:58;;;;;;;3.13;2.20;;;5.00;99.90;;;;;;5028395;28;20471;-54
2021/04/16 02:09:30;;;;;;;2.97;2.20;;;4.90;99.90;;;;;;5028810;28;20479;-52
2021/04/16 02:11:58;;;;;;;2.47;2.03;;;4.90;99.90;;;;;;5027576;28;20481;-52
2021/04/16 02:14:29;;;;;;;2.40;2.10;;;4.80;99.90;;;;;;5028686;28;20851;-51
2021/04/16 02:16:59;;;;;;;4.53;2.60;;;4.70;99.90;;;;;;5028098;28;20544;-55
2021/04/16 02:19:27;;;;;;;2.80;2.37;;;4.60;99.90;;;;;;5028353;28;20486;-53
2021/04/16 02:21:57;;;;;;;2.30;2.10;;;4.60;99.90;;;;;;5027738;28;20229;-54
2021/04/16 02:24:25;;;;;;;5.83;2.70;;;4.60;99.90;;;;;;5028473;28;20489;-53
2021/04/16 02:26:57;;;;;;;2.47;2.27;;;4.60;99.90;;;;;;5028083;28;20471;-51
2021/04/16 02:29:25;;;;;;;3.23;2.27;;;4.60;99.90;;;;;;5028675;28;20549;-53
2021/04/16 02:31:52;;;;;;;2.40;2.13;;;4.50;99.90;;;;;;5026650;28;20490;-52
2021/04/16 02:34:22;;;;;;;2.47;2.27;;;4.50;99.90;;;;;;5028006;28;20476;-54
2021/04/16 02:36:53;;;;;;;2.20;2.00;;;4.40;99.90;;;;;;5028141;28;21002;-55
2021/04/16 02:39:21;;;;;;;3.20;2.57;;;4.40;99.90;;;;;;5028353;28;20499;-54
2021/04/16 02:41:49;;;;;;;3.07;2.30;;;4.40;99.90;;;;;;5027335;28;20473;-55
2021/04/16 02:44:18;;;;;;;2.60;2.30;;;4.40;99.90;;;;;;5010655;28;20490;-53
2021/04/16 02:46:45;;;;;;;4.00;2.10;;;4.40;99.90;;;;;;5027966;28;20554;-53
2021/04/16 02:49:14;;;;;;;2.00;1.80;;;4.40;99.90;;;;;;5009948;28;20493;-55
2021/04/16 02:51:41;;;;;;;2.83;2.37;;;4.50;99.90;;;;;;5025541;28;20482;-55
2021/04/16 02:54:08;;;;;;;2.80;1.87;;;4.50;99.90;;;;;;5027969;28;20483;-56
2021/04/16 02:56:36;;;;;;;2.30;1.97;;;4.50;99.90;;;;;;5028783;28;20479;-52
2021/04/16 02:59:06;;;;;;;2.13;1.90;;;4.50;99.90;;;;;;5021310;28;20517;-51
2021/04/16 03:01:34;;;;;;;2.83;2.43;;;4.50;99.90;;;;;;5025993;28;20570;-53
2021/04/16 03:04:02;;;;;;;3.43;2.53;;;4.40;99.90;;;;;;5027786;28;21012;-55
2021/04/16 03:06:29;;;;;;;2.90;2.20;;;4.20;99.90;;;;;;5027473;28;20477;-52
2021/04/16 03:09:01;;;;;;;2.30;2.10;;;4.10;99.90;;;;;;5026622;28;20477;-55
2021/04/16 03:11:29;;;;;;;2.67;2.13;;;4.20;99.90;;;;;;5026407;28;20493;-53
2021/04/16 03:13:57;;;;;;;4.10;2.40;;;4.40;99.90;;;;;;5027916;28;20881;-52
2021/04/16 03:16:27;;;;;;;3.83;2.50;;;4.40;99.90;;;;;;5027467;28;20482;-51
2021/04/16 03:18:59;;;;;;;3.10;2.40;;;4.40;99.90;;;;;;5027875;28;20470;-55
2021/04/16 03:21:27;;;;;;;4.03;2.50;;;4.50;99.90;;;;;;5026773;28;20878;-56
2021/04/16 03:23:55;;;;;;;2.43;2.10;;;4.40;99.90;;;;;;5027740;28;20849;-56
2021/04/16 03:26:23;;;;;;;3.30;2.60;;;4.40;99.90;;;;;;5027740;28;20479;-53
2021/04/16 03:28:53;;;;;;;3.00;2.60;;;4.30;99.90;;;;;;5027383;28;20483;-53
2021/04/16 03:31:21;;;;;;;3.60;2.50;;;4.20;99.90;;;;;;5026624;28;20842;-54
2021/04/16 03:33:49;;;;;;;3.53;2.57;;;4.20;99.90;;;;;;5027445;28;20476;-54
2021/04/16 03:36:17;;;;;;;2.93;2.63;;;4.20;99.90;;;;;;5027424;28;20523;-53
2021/04/16 03:38:46;;;;;;;3.30;2.60;;;4.30;99.90;;;;;;5027521;28;20494;-55
2021/04/16 03:41:14;;;;;;;5.20;2.57;;;4.30;99.90;;;;;;5026130;28;20510;-52
2021/04/16 03:43:42;;;;;;;4.03;2.43;;;4.30;99.90;;;;;;5026616;28;20479;-54
2021/04/16 03:46:10;;;;;;;2.67;2.47;;;4.30;99.90;;;;;;5027269;28;20479;-55
2021/04/16 03:48:37;;;;;;;2.80;2.37;;;4.20;99.90;;;;;;5025710;28;20487;-53
2021/04/16 03:51:07;;;;;;;3.63;2.87;;;4.10;99.90;;;;;;5026507;28;20485;-54
2021/04/16 03:53:36;;;;;;;3.67;2.73;;;4.20;99.90;;;;;;5026294;28;20482;-55
2021/04/16 03:56:07;;;;;;;3.53;3.10;;;4.30;99.90;;;;;;5022726;28;20565;-53
2021/04/16 03:58:35;;;;;;;5.77;2.43;;;4.50;99.90;;;;;;5021491;28;20998;-54
2021/04/16 04:01:03;;;;;;;4.93;2.70;;;4.40;99.90;;;;;;5025967;28;20601;-53
2021/04/16 04:03:31;;;;;;;3.97;3.20;;;4.40;99.90;;;;;;5027116;28;20572;-53
2021/04/16 04:05:59;;;;;;;3.33;2.97;;;4.40;99.90;;;;;;5028618;28;20545;-55
2021/04/16 04:08:27;;;;;;;4.33;3.30;;;4.30;99.90;;;;;;5025041;28;21015;-53
2021/04/16 04:10:55;;;;;;;3.60;2.63;;;4.30;99.90;;;;;;5046453;28;20502;-55
2021/04/16 04:13:27;;;;;;;3.57;3.03;;;4.30;99.90;;;;;;5046878;28;20895;-55
2021/04/16 04:15:56;;;;;;;3.23;2.80;;;4.50;99.90;;;;;;5047125;28;20477;-54
2021/04/16 04:18:30;;;;;;;4.13;3.00;;;4.60;99.90;;;;;;5046521;28;20476;-54
2021/04/16 04:21:00;;;;;;;4.00;3.13;;;4.60;99.90;;;;;;5048808;28;20979;-52
2021/04/16 04:23:28;;;;;;;3.57;3.20;;;4.60;99.90;;;;;;5050348;28;20481;-55
2021/04/16 04:25:58;;;;;;;3.57;2.87;;;4.30;99.90;;;;;;5040134;28;20475;-55
2021/04/16 04:28:50;;;;;;;3.77;3.10;;;4.20;99.90;;;;;;5030909;28;20485;-51
2021/04/16 04:31:17;;;;;;;4.20;3.00;;;4.30;99.90;;;;;;5029248;28;20481;-56
2021/04/16 04:33:45;;;;;;;3.13;2.90;;;4.40;99.90;;;;;;5012603;28;20525;-54
2021/04/16 04:36:12;;;;;;;3.50;2.90;;;4.50;99.90;;;;;;5030434;28;20488;-53
2021/04/16 04:38:39;;;;;;;3.57;2.90;;;4.50;99.90;;;;;;5030554;28;20486;-52
2021/04/16 04:41:08;;;;;;;4.37;3.30;;;4.60;99.90;;;;;;5029441;28;20482;-52
2021/04/16 04:43:35;;;;;;;4.23;3.43;;;4.60;99.90;;;;;;5030519;28;20490;-54
2021/04/16 04:46:03;;;;;;;5.00;3.40;;;4.50;99.90;;;;;;5030478;28;20544;-53
2021/04/16 04:48:30;;;;;;;4.33;3.40;;;4.40;99.90;;;;;;5029959;28;21021;-55
2021/04/16 04:50:57;;;;;;;4.47;3.60;;;4.30;99.90;;;;;;5031900;28;20876;-56
2021/04/16 04:53:25;;;;;;;3.83;3.30;;;4.10;99.90;;;;;;5024954;28;20488;-54
2021/04/16 04:55:52;;;;;;;3.93;3.50;;;4.00;99.90;;;;;;5030331;28;20497;-51
2021/04/16 04:58:48;;;;;;;3.27;2.67;;;3.90;99.90;;;;;;5023546;28;20467;-53
2021/04/16 05:01:15;;;;;;;4.20;3.47;;;4.00;99.90;;;;;;5026144;28;20477;-54
2021/04/16 05:03:43;;;;;;;4.50;3.40;;;3.90;99.90;;;;;;5030009;28;20489;-54
2021/04/16 05:06:10;;;;;;;4.57;3.37;;;3.90;99.90;;;;;;5030485;28;20993;-55
2021/04/16 05:08:37;;;;;;;5.40;3.57;;;3.80;99.90;;;;;;5029808;28;20901;-55
2021/04/16 05:11:06;;;;;;;6.27;3.77;;;3.90;99.90;;;;;;5028906;28;20529;-55
2021/04/16 05:13:33;;;;;;;10.30;5.13;;;4.00;99.90;;;;;;5028600;28;20652;-55
2021/04/16 05:16:02;;;;;;;8.73;4.03;;;4.30;99.90;;;;;;5028355;28;20489;-51
2021/04/16 05:18:29;;;;;;;3.77;3.40;;;4.30;99.90;;;;;;5028247;28;20537;-52
2021/04/16 05:21:00;;;;;;;5.27;3.40;;;4.20;99.90;;;;;;5028059;28;20483;-55
2021/04/16 05:23:27;;;;;;;4.10;3.40;;;4.20;99.90;;;;;;5027949;28;20514;-56
2021/04/16 05:25:56;;;;;;;4.63;3.50;;;4.30;99.90;;;;;;5032468;28;21027;-55
2021/04/16 05:28:23;;;;;;;4.47;3.73;;;4.30;99.90;;;;;;5027886;28;20482;-54
2021/04/16 05:30:51;;;;;;;6.13;3.40;;;4.40;99.90;;;;;;5025948;28;20570;-54
2021/04/16 05:33:19;;;;;;;4.53;3.20;;;4.40;99.90;;;;;;5026880;28;20558;-55
2021/04/16 05:35:46;;;;;;;5.60;3.23;;;4.50;99.90;;;;;;5027009;28;20556;-56
2021/04/16 05:38:14;;;;;;;4.10;2.97;;;4.60;99.90;;;;;;5027749;28;20481;-53
2021/04/16 05:40:41;;;;;;;7.07;3.57;;;4.70;99.90;;;;;;5009486;28;20565;-53
2021/04/16 05:43:08;;;;;;;3.87;3.20;;;4.70;99.90;;;;;;5027850;28;20556;-55
2021/04/16 05:45:35;;;;;;;4.57;3.60;;;4.80;99.90;;;;;;5027354;28;20478;-51
2021/04/16 05:48:03;;;;;;;4.07;3.40;;;4.90;99.90;;;;;;5029368;28;20497;-53
2021/04/16 05:50:31;;;;;;;6.77;2.97;;;5.00;99.90;;;;;;5023346;28;20494;-54
2021/04/16 05:53:02;;;;;;;4.10;2.80;;;5.10;99.90;;;;;;5024875;28;21004;-53
2021/04/16 05:55:30;;;;;;;3.37;2.83;;;5.10;99.90;;;;;;5026887;28;20486;-55
2021/04/16 05:57:59;;;;;;;4.67;3.30;;;5.00;99.90;;;;;;5027872;28;20479;-56
2021/04/16 06:00:26;;;;;;;6.17;3.60;;;5.00;99.90;;;;;;5026574;28;20482;-55
2021/04/16 06:02:55;;;;;;;7.20;3.70;;;5.00;99.90;;;;;;5027232;28;20474;-52
2021/04/16 06:05:23;;;;;;;6.37;3.40;;;5.00;99.90;;;;;;5027830;28;20836;-54
2021/04/16 06:07:54;;;;;;;5.03;3.03;;;5.00;99.90;;;;;;5027863;28;20495;-55
2021/04/16 06:10:23;;;;;;;4.57;3.27;;;5.10;99.90;;;;;;5027009;28;20520;-55
2021/04/16 06:12:51;;;;;;;4.93;3.47;;;5.20;99.90;;;;;;5027191;28;20562;-53
2021/04/16 06:15:21;;;;;;;6.17;3.50;;;5.30;99.90;;;;;;5027531;28;20486;-55
2021/04/16 06:17:49;;;;;;;4.27;3.00;;;5.50;99.90;;;;;;5027764;28;20526;-52
2021/04/16 06:20:20;;;;;;;9.63;3.60;;;5.60;99.90;;;;;;5026970;28;20566;-52
2021/04/16 06:22:49;;;;;;;5.73;3.00;;;5.70;99.90;;;;;;5027006;28;20485;-54
2021/04/16 06:25:21;;;;;;;7.43;3.40;;;5.80;99.90;;;;;;5006644;28;20823;-55
2021/04/16 06:27:49;;;;;;;7.33;3.43;;;5.90;99.90;;;;;;5027019;28;20486;-52
2021/04/16 06:30:19;;;;;;;5.20;3.27;;;6.00;99.90;;;;;;5027118;28;20464;-54
2021/04/16 06:32:47;;;;;;;7.30;3.13;;;6.00;99.90;;;;;;5027541;28;20872;-51
2021/04/16 06:35:16;;;;;;;4.80;3.40;;;6.10;99.90;;;;;;5026676;28;20471;-55
2021/04/16 06:37:44;;;;;;;5.57;3.03;;;6.00;99.90;;;;;;5028057;28;20483;-53
2021/04/16 06:40:13;;;;;;;4.00;3.40;;;6.00;99.90;;;;;;5027610;28;20490;-54
2021/04/16 06:42:42;;;;;;;5.47;3.50;;;6.20;99.90;;;;;;5026579;28;20548;-52
2021/04/16 06:45:18;;;;;;;5.77;3.23;;;6.30;99.90;;;;;;5026565;28;20268;-51
2021/04/16 06:47:54;;;;;;;7.10;3.50;;;6.50;99.90;;;;;;5021977;28;20545;-54
2021/04/16 06:50:28;;;;;;;6.13;3.57;;;6.50;99.90;;;;;;5025244;28;20232;-52
2021/04/16 06:53:04;;;;;;;5.73;3.67;;;6.60;99.90;;;;;;5027050;28;20237;-53
2021/04/16 06:55:37;;;;;;;5.83;3.40;;;6.90;99.90;;;;;;5028277;28;20814;-54
2021/04/16 06:58:10;;;;;;;5.67;3.60;;;7.20;99.90;;;;;;5027520;28;20322;-52
2021/04/16 07:00:45;;;;;;;6.00;3.80;;;7.50;99.90;;;;;;5026956;28;20314;-51
2021/04/16 07:03:25;;;;;;;4.70;3.40;;;7.60;99.90;;;;;;5027983;28;20236;-54
2021/04/16 07:05:55;;;;;;;5.60;3.57;;;7.80;99.90;;;;;;5030669;28;20302;-52
2021/04/16 07:08:32;;;;;;;5.57;3.70;;;7.90;99.90;;;;;;5036786;28;20310;-54
2021/04/16 07:11:02;;;;;;;9.20;3.73;;;7.90;99.90;;;;;;5046658;28;20235;-51
2021/04/16 07:13:35;;;;;;;4.03;3.40;;;7.90;99.90;;;;;;5037650;28;20240;-53
2021/04/16 07:16:04;;;;;;;5.63;4.00;;;8.10;99.90;;;;;;5027561;28;20240;-55
2021/04/16 07:18:41;;;;;;;8.13;4.07;;;8.30;99.90;;;;;;5027746;28;20240;-53
2021/04/16 07:21:12;;;;;;;7.20;4.43;;;8.30;99.90;;;;;;5027046;28;20240;-51
2021/04/16 07:23:49;;;;;;;5.77;3.90;;;8.40;99.90;;;;;;5027651;28;20247;-54
2021/04/16 07:26:42;;;;;;;6.53;4.23;;;8.70;99.90;;;;;;5043145;28;20250;-55
2021/04/16 07:29:18;;;;;;;4.83;3.93;;;8.70;99.90;;;;;;5047375;28;20300;-54
2021/04/16 07:31:49;;;;;;;6.13;4.63;;;8.70;99.90;;;;;;5045956;28;20245;-54
2021/04/16 07:34:33;;;;;;;6.70;4.80;;;9.10;99.90;;;;;;5047252;28;20279;-54
2021/04/16 07:37:12;;;;;;;6.97;4.47;;;9.40;99.90;;;;;;5046965;28;20634;-53
2021/04/16 07:39:47;;;;;;;6.97;5.30;;;9.60;99.90;;;;;;5046950;28;20641;-51
2021/04/16 07:42:38;;;;;;;10.53;5.00;;;9.60;99.90;;;;;;5038499;28;20252;-53
2021/04/16 07:45:20;;;;;;;8.67;5.03;;;9.70;99.90;;;;;;5022748;28;20331;-54
2021/04/16 07:47:48;;;;;;;7.20;5.23;;;9.70;99.90;;;;;;5020699;28;20236;-55
2021/04/16 07:50:29;;;;;;;9.40;5.10;;;10.10;99.90;;;;;;5026210;28;20253;-56
2021/04/16 07:52:58;;;;;;;8.50;5.20;;;10.30;99.90;;;;;;5026044;28;20551;-54
2021/04/16 07:55:28;;;;;;;10.00;5.20;;;10.40;99.90;;;;;;5029012;28;20286;-55
2021/04/16 07:58:08;;;;;;;7.30;4.90;;;10.20;99.90;;;;;;5030918;28;20316;-51
2021/04/16 08:00:40;;;;;;;6.83;5.10;;;10.10;99.90;;;;;;5029684;28;20245;-51
2021/04/16 08:03:13;;;;;;;8.10;4.73;;;10.10;99.90;;;;;;5030592;28;20238;-54
2021/04/16 08:05:45;;;;;;;8.17;5.00;;;10.10;99.90;;;;;;5030441;28;20247;-54
2021/04/16 08:08:21;;;;;;;8.23;4.70;;;10.20;99.90;;;;;;5030680;28;20310;-51
2021/04/16 08:10:52;;;;;;;8.60;5.30;;;10.50;99.90;;;;;;5029739;28;20259;-55
2021/04/16 08:13:23;;;;;;;7.53;4.80;;;10.80;99.90;;;;;;5030574;28;20729;-53
2021/04/16 08:15:52;;;;;;;8.07;4.50;;;10.80;99.90;;;;;;5030806;28;20690;-53
2021/04/16 08:18:29;;;;;;;8.93;4.87;;;11.00;99.90;;;;;;5030633;28;20662;-54
2021/04/16 08:21:05;;;;;;;8.43;4.43;;;11.30;99.90;;;;;;5024645;28;20321;-53
2021/04/16 08:23:40;;;;;;;8.67;4.37;;;11.50;99.90;;;;;;5023916;28;20288;-51
2021/04/16 08:26:10;;;;;;;9.20;4.70;;;11.50;99.90;;;;;;5017939;28;20286;-55
2021/04/16 08:28:50;;;;;;;6.30;4.30;;;11.40;99.90;;;;;;5016481;28;20273;-55
2021/04/16 08:31:28;;;;;;;6.93;4.43;;;11.30;99.90;;;;;;5025697;28;20243;-51
2021/04/16 08:34:04;;;;;;;7.37;4.43;;;11.20;99.90;;;;;;5028055;28;20236;-51
2021/04/16 08:36:35;;;;;;;6.57;3.73;;;11.30;99.90;;;;;;5026484;28;20677;-55
2021/04/16 08:39:08;;;;;;;5.83;3.93;;;11.60;99.90;;;;;;5024943;28;20226;-51
2021/04/16 08:41:50;;;;;;;7.67;3.70;;;11.80;99.90;;;;;;5024929;28;20321;-52
2021/04/16 08:44:19;;;;;;;6.33;4.00;;;12.20;99.90;;;;;;5025132;28;20247;-53
2021/04/16 08:46:51;;;;;;;5.03;4.07;;;12.20;99.90;;;;;;5025752;28;20325;-54
2021/04/16 08:49:23;;;;;;;4.83;3.43;;;12.30;99.90;;;;;;5027273;28;20254;-52
2021/04/16 08:51:58;;;;;;;6.77;3.67;;;12.30;99.90;;;;;;5024410;28;20238;-54
2021/04/16 08:54:28;;;;;;;5.80;3.70;;;12.40;99.90;;;;;;5026800;28;20293;-52
2021/04/16 08:57:01;;;;;;;5.67;3.90;;;12.40;99.90;;;;;;5027521;28;20234;-52
2021/04/16 08:59:36;;;;;;;6.03;4.37;;;12.50;99.90;;;;;;5027200;28;20796;-55
2021/04/16 09:02:17;;;;;;;7.00;5.20;;;12.90;99.90;;;;;;5027521;28;20232;-52
2021/04/16 09:04:49;;;;;;;8.23;4.97;;;13.10;99.90;;;;;;5023522;28;20239;-54
2021/04/16 09:07:38;;;;;;;8.17;4.97;;;13.20;99.90;;;;;;5023850;28;20355;-52
2021/04/16 09:10:38;;;;;;;9.83;4.70;;;13.00;99.90;;;;;;5027161;28;20308;-52
2021/04/16 09:13:07;;;;;;;6.43;3.33;;;13.30;99.90;;;;;;5020005;28;20281;-50
2021/04/16 09:15:43;;;;;;;8.77;3.73;;;13.20;99.90;;;;;;5032116;28;20243;-52
2021/04/16 09:18:30;;;;;;;6.17;3.53;;;13.20;99.90;;;;;;5045569;28;20241;-53
2021/04/16 09:21:27;;;;;;;3.87;3.13;;;13.30;99.90;;;;;;5043650;28;20597;-54
2021/04/16 09:24:13;;;;;;;3.13;2.47;;;13.10;99.90;;;;;;5037429;28;20300;-51
2021/04/16 09:27:16;;;;;;;6.10;3.10;;;12.90;99.90;;;;;;5024514;28;20251;-52
2021/04/16 09:29:47;;;;;;;4.10;3.27;;;13.10;99.90;;;;;;5001685;28;20289;-50
2021/04/16 09:32:47;;;;;;;4.67;3.20;;;13.00;99.90;;;;;;5024775;28;20271;-51
2021/04/16 09:36:00;;;;;;;4.27;2.33;;;13.10;99.90;;;;;;5020310;28;20245;-50
2021/04/16 09:39:02;;;;;;;3.27;2.13;;;13.30;99.90;;;;;;5012065;28;20268;-53
2021/04/16 09:41:36;;;;;;;3.13;1.73;;;13.70;99.90;;;;;;5017625;28;20239;-51
2021/04/16 09:44:44;;;;;;;2.23;1.30;;;13.50;99.90;;;;;;5019229;28;20428;-51
2021/04/16 09:47:13;;;;;;;2.00;1.50;;;13.80;99.90;;;;;;5014704;28;20247;-53
2021/04/16 09:49:56;;;;;;;2.77;1.70;;;14.00;99.90;;;;;;5023562;28;20238;-51
2021/04/16 09:52:53;;;;;;;2.27;1.43;;;14.30;99.90;;;;;;5017484;28;20247;-55
2021/04/16 09:56:10;;;;;;;3.00;1.50;;;14.20;97.60;;;;;;5017536;28;20304;-51
2021/04/16 09:59:10;;;;;;;2.47;1.57;;;13.60;97.80;;;;;;4986890;28;20297;-51
2021/04/16 10:02:33;;;;;;;2.33;1.73;;;13.00;98.90;;;;;;5014368;28;20790;-53
2021/04/16 10:05:26;;;;;;;2.47;1.57;;;13.30;99.90;;;;;;5019188;28;20360;-51
2021/04/16 10:08:01;;;;;;;1.93;1.53;;;13.60;97.20;;;;;;5017321;28;20305;-50
2021/04/16 10:10:35;;;;;;;2.03;1.60;;;14.20;98.70;;;;;;5020126;28;20281;-50
2021/04/16 10:13:06;;;;;;;3.43;1.60;;;14.20;97.70;;;;;;5030303;28;20240;-53
2021/04/16 10:15:38;;;;;;;2.83;1.67;;;14.60;97.70;;;;;;5017460;28;20294;-51
2021/04/16 10:18:14;;;;;;;3.53;1.63;;;14.40;95.30;;;;;;5024259;28;20807;-51
2021/04/16 10:20:55;;;;;;;4.70;1.70;;;14.30;95.00;;;;;;5014241;28;20239;-50
2021/04/16 10:23:29;;;;;;;2.50;1.70;;;14.40;94.70;;;;;;5021413;28;20695;-50
2021/04/16 12:38:30;;;;;;;2.50;1.03;;;13.60;89.80;;;;;;5032963;28;20251;-51
2021/04/16 12:41:00;;;;;;;1.43;0.80;;;13.80;90.70;;;;;;5030661;28;20634;-51
2021/04/16 12:43:31;;;;;;;2.00;1.10;;;13.80;90.30;;;;;;4713552;28;10000727;-51
2021/04/16 12:46:00;;;;;;;1.80;0.90;;;13.60;90.80;;;;;;1384439;28;10002164;-53
2021/04/16 12:48:27;;;;;;;2.77;1.10;;;13.30;89.90;;;;;;5026239;28;20576;-51
2021/04/16 12:50:55;;;;;;;1.47;0.90;;;13.20;90.50;;;;;;5031173;28;20236;-50
2021/04/16 12:53:25;;;;;;;1.73;1.00;;;13.30;91.60;;;;;;5029381;28;20708;-53
2021/04/16 12:55:57;;;;;;;2.50;1.00;;;13.50;91.70;;;;;;5029763;28;20563;-52
2021/04/16 12:58:30;;;;;;;0.97;0.90;;;13.60;91.90;;;;;;5029219;28;20665;-55
2021/04/16 13:01:01;;;;;;;2.03;1.07;;;13.50;90.00;;;;;;5027722;28;20242;-49
2021/04/16 13:03:34;;;;;;;1.20;1.00;;;13.20;91.50;;;;;;5030052;28;20236;-51
2021/04/16 13:06:03;;;;;;;3.67;1.30;;;13.40;90.00;;;;;;5030071;28;20605;-51
2021/04/16 13:08:31;;;;;;;2.83;1.10;;;13.60;90.50;;;;;;5029712;28;20244;-50
2021/04/16 13:10:59;;;;;;;4.43;1.40;;;13.30;90.70;;;;;;5029561;28;20244;-53
2021/04/16 13:13:27;;;;;;;3.53;0.90;;;12.90;90.80;;;;;;5029426;28;20232;-50
2021/04/16 13:15:55;;;;;;;1.33;1.00;;;12.90;91.30;;;;;;5028293;28;20294;-52
2021/04/16 13:18:30;;;;;;;3.30;1.30;;;13.00;92.40;;;;;;5029030;28;20290;-51
2021/04/16 13:20:59;;;;;;;2.13;1.00;;;12.80;90.80;;;;;;5028962;28;20243;-52
2021/04/16 13:23:27;;;;;;;1.50;1.03;;;12.90;91.60;;;;;;5031826;28;20235;-51
2021/04/16 13:25:54;;;;;;;3.60;1.20;;;12.90;91.10;;;;;;5031759;28;20270;-51
2021/04/16 13:28:21;;;;;;;2.37;1.17;;;13.00;91.20;;;;;;5027982;28;20243;-51
2021/04/16 13:30:49;;;;;;;3.07;1.20;;;13.00;91.00;;;;;;5028740;28;20695;-50
2021/04/16 13:33:20;;;;;;;1.83;1.20;;;12.90;91.70;;;;;;5030485;28;20662;-52
2021/04/16 13:35:54;;;;;;;1.70;1.20;;;12.90;91.40;;;;;;5028849;28;20243;-50
2021/04/16 13:38:25;;;;;;;2.40;1.10;;;12.60;91.40;;;;;;5028035;28;20258;-53
2021/04/16 13:40:54;;;;;;;4.27;1.20;;;12.60;92.00;;;;;;5029022;28;20685;-51
2021/04/16 13:43:23;;;;;;;1.47;0.83;;;12.50;92.00;;;;;;5028913;28;20577;-50
2021/04/16 13:45:52;;;;;;;3.03;1.20;;;12.60;92.20;;;;;;5028699;28;20257;-51
2021/04/16 13:48:20;;;;;;;2.57;1.30;;;12.50;91.40;;;;;;5028980;28;20250;-51
2021/04/16 13:50:48;;;;;;;1.70;1.10;;;12.50;92.70;;;;;;5027905;28;20440;-50
2021/04/16 13:53:16;;;;;;;2.60;1.30;;;12.30;92.50;;;;;;5027930;28;20302;-49
2021/04/16 13:55:44;;;;;;;3.60;1.40;;;12.20;93.00;;;;;;5026079;28;20289;-49
2021/04/16 13:58:11;;;;;;;3.40;1.57;;;12.20;92.20;;;;;;5028254;28;20790;-54
2021/04/16 14:00:39;;;;;;;3.10;1.20;;;12.40;93.40;;;;;;5026956;28;20238;-50
2021/04/16 14:03:14;;;;;;;1.83;1.10;;;12.30;92.50;;;;;;5029700;28;20331;-51
2021/04/16 14:05:49;;;;;;;2.73;1.10;;;12.20;92.20;;;;;;5021006;28;20254;-51
2021/04/16 14:08:26;;;;;;;2.67;1.10;;;12.40;92.20;;;;;;5027368;28;20238;-50
2021/04/16 14:10:54;;;;;;;2.03;0.90;;;12.40;92.00;;;;;;5027064;28;20246;-52
2021/04/16 14:13:21;;;;;;;3.40;1.10;;;12.50;93.10;;;;;;5027812;28;20257;-51
2021/04/16 14:15:48;;;;;;;1.80;1.03;;;12.50;92.00;;;;;;5028313;28;20796;-53
2021/04/16 14:18:29;;;;;;;2.07;1.00;;;12.50;92.30;;;;;;5028237;28;20247;-50
2021/04/16 14:20:57;;;;;;;1.80;1.13;;;12.50;91.50;;;;;;5026725;28;20508;-51
2021/04/16 14:23:25;;;;;;;1.93;1.37;;;12.40;91.30;;;;;;5027993;28;20266;-51
2021/04/16 14:25:53;;;;;;;1.70;1.20;;;12.40;91.20;;;;;;5025858;28;20285;-49
2021/04/16 14:28:23;;;;;;;2.30;1.00;;;12.30;91.80;;;;;;5027634;28;20243;-50
2021/04/16 14:30:52;;;;;;;2.00;1.10;;;12.30;93.40;;;;;;5011921;28;20798;-50
2021/04/16 14:33:25;;;;;;;3.30;1.20;;;12.20;92.90;;;;;;5025869;28;20773;-51
2021/04/16 14:35:52;;;;;;;2.10;1.13;;;12.10;93.10;;;;;;5022631;28;20285;-49
2021/04/16 14:38:21;;;;;;;1.83;1.30;;;12.00;94.40;;;;;;5027634;28;20712;-51
2021/04/16 14:40:52;;;;;;;3.13;1.50;;;12.10;93.90;;;;;;5026020;28;20296;-51
2021/04/16 14:43:22;;;;;;;2.20;1.13;;;12.00;93.50;;;;;;5026441;28;20333;-52
2021/04/16 14:45:53;;;;;;;3.30;1.30;;;11.80;92.90;;;;;;5025248;28;20294;-50
2021/04/16 14:48:24;;;;;;;2.70;1.10;;;11.80;93.70;;;;;;5023889;28;20235;-50
2021/04/16 14:50:54;;;;;;;1.70;1.13;;;11.80;93.30;;;;;;5027446;28;20290;-51
2021/04/16 14:53:41;;;;;;;1.93;1.17;;;11.60;93.10;;;;;;5025992;28;20235;-51
2021/04/16 14:56:14;;;;;;;2.33;1.20;;;11.70;94.30;;;;;;5024791;28;20238;-50
2021/04/16 14:58:45;;;;;;;1.57;1.07;;;11.60;92.50;;;;;;5025590;28;20234;-53
2021/04/16 15:01:13;;;;;;;1.93;0.97;;;11.50;93.20;;;;;;5029582;28;20235;-52
2021/04/16 15:03:43;;;;;;;1.77;1.00;;;11.60;92.70;;;;;;5009553;28;20746;-51
2021/04/16 15:06:19;;;;;;;2.17;1.20;;;11.60;92.10;;;;;;5019382;28;20266;-50
2021/04/16 15:08:51;;;;;;;2.57;0.87;;;11.60;92.30;;;;;;5024449;28;20586;-50
2021/04/16 15:11:21;;;;;;;2.30;0.80;;;11.60;92.90;;;;;;5026783;28;20249;-54
2021/04/16 15:13:49;;;;;;;1.10;1.00;;;11.60;92.10;;;;;;5024779;28;20239;-50
2021/04/16 15:16:19;;;;;;;2.87;0.80;;;11.60;91.00;;;;;;5024350;28;20234;-50
2021/04/16 15:18:48;;;;;;;2.13;1.10;;;11.60;90.00;;;;;;5026002;28;20257;-50
2021/04/16 15:21:19;;;;;;;1.73;0.97;;;11.60;91.20;;;;;;5023530;28;20309;-50
2021/04/16 15:24:11;;;;;;;0.90;0.83;;;11.50;92.10;;;;;;5022996;28;20238;-50
2021/04/16 15:26:38;;;;;;;3.43;1.43;;;11.60;93.90;;;;;;5023300;28;20291;-51
2021/04/16 15:29:09;;;;;;;2.60;1.20;;;11.50;93.90;;;;;;5026569;28;20235;-51
2021/04/16 15:31:44;;;;;;;4.23;1.30;;;11.40;93.80;;;;;;5024888;28;20764;-50